Aérodrome :
LOGIN :

S'inscrire | Disclaimer

   EN    FR    IT 

 










Légende :    VFR   VFR Marginal   IFR   IFR Intensif   IFR Très Intensif
Visi : 
Plafond : 
>= 8 km
>= 3000ft
5 à 8 km
1000 à 3000 ft
1500m à 5 km
500 à 1000 ft
800 à 1500m
200 à 500 ft
< 800m
< 200 ft
Symboles :   Orages  Brouillard  Fortes neiges  Fortes précipitations  Vent > 20 kt
SIGMETs :   Divers  Orages  Givrage  Turbulence  Onde Orograph.  Cendres Volcan.







- Altitude de l'aérodrome : 15 ft
- Code IATA : BHD
- Voir les cartes d'approche


EGAC - George Best Belfast City

DERNIER METAR :
  • 170720Z 23017KT 9999 -DZ FEW018 BKN020 11/08 Q1008

METARs EXPIRÉS :
  • 170650Z 23017G28KT 9999 -DZ FEW018 BKN020 11/08 Q1008
  • 170620Z 23016KT 9999 -DZ FEW018 BKN020 11/08 Q1007
  • 170550Z 23019KT 9999 -DZ FEW018 BKN020 11/08 Q1007
  • 170520Z 22016KT 9999 FEW014 SCT015 BKN018 11/08 Q1006

TAF TAF EGAC
Valide du 17 à 06h jusqu'au 17 à 15h UTC


170600Z 1706/1715 21020G30KT 9999 FEW012 SCT025
BECMG 1706/1709 25015KT
TEMPO 1706/1712 4000 -RADZ RA BKN012
PROB30
TEMPO 1712/1715 7000 -SHRA
ATIS : +44 02890 935 124
Pas de NOTAMs connus pour ce terrain.
4 SIGMETs publiés pour la FIR Scottish (EGPX) :
 
Turbulence forte
EGPX SIGMET 06 VALID 170553/170900 EGRR
EGPX SCOTTISH FIR SEV TURB FCST E OF LINE N6100 W00800 - N5350 W00800 SFC/FL060 MOV E 15KT NC=
Annulation du SIGMET 04
EGPX SIGMET 05 VALID 170549/170900 EGRR
EGPX SCOTTISH FIR CNL SIGMET 04 170500/170900=
SIGMET 04  ANNULÉ :
Turbulence forte
EGPX SIGMET 04 VALID 170500/170900 EGRR
EGPX SCOTTISH FIR SEV TURB FCST E OF LINE N6100 W00815 - N5520 W00815 SFC/FL060 MOV E 15KT NC=
Onde orographique forte
EGPX SIGMET 03 VALID 170500/170900 EGRR
EGPX SCOTTISH FIR SEV MTW FCST WI N5500 E00115 - N5500 W00530 - N5355 W00530 - N5425 W00810 - N6100 W00810 - N6100 E00000 - N6000 E00000 - N5914 E00117 - N5500 E00115 FL030/200 STNR WKN=



MET'MAP, la Météo Aéronautique d'un coup d'oeil ! - Copyright ORBIFLY Décembre 2007 - Disclaimer

ORBIFLY MET'MAP TEAM :

Programmation & Développement : Alexandra Zaïnal
Conception & Développement : Baudouin d'Aumeries
Co-Programmation & Développement : Marc-Olivier Méhu
Soutien technique & logistique : Manuel Goepfert

Contact : metmap@orbifly.com




SOURCES & CREDITS :

   NOAA